createdAt,value
2023-03-05T00:00:06.038Z,13.20
2023-03-05T00:05:09.296Z,12.73
2023-03-05T00:10:11.647Z,11.70
2023-03-05T00:15:14.082Z,12.10
2023-03-05T00:20:16.373Z,11.52
2023-03-05T00:25:18.715Z,11.65
2023-03-05T00:30:20.854Z,10.65
2023-03-05T00:35:23.130Z,13.10
2023-03-05T00:40:25.431Z,12.98
2023-03-05T00:45:27.595Z,15.43
2023-03-05T00:50:29.774Z,13.15
2023-03-05T00:55:31.877Z,12.02
2023-03-05T01:00:34.044Z,11.40
2023-03-05T01:05:36.645Z,11.55
2023-03-05T01:10:38.971Z,11.43
2023-03-05T01:15:41.218Z,11.50
2023-03-05T01:20:43.872Z,12.25
2023-03-05T01:25:46.051Z,11.55
2023-03-05T01:30:48.933Z,10.30
2023-03-05T01:35:51.051Z,11.38
2023-03-05T01:40:53.230Z,9.88
2023-03-05T01:46:13.849Z,12.82
2023-03-05T01:56:19.102Z,11.40
2023-03-05T02:01:21.526Z,11.13
2023-03-05T02:06:23.673Z,10.57
2023-03-05T02:11:25.995Z,10.82
2023-03-05T02:16:37.032Z,8.07
2023-03-05T02:21:47.529Z,9.52
2023-03-05T02:26:49.728Z,9.77
2023-03-05T02:31:51.895Z,8.82
2023-03-05T02:36:55.898Z,9.95
2023-03-05T02:41:58.218Z,10.65
2023-03-05T02:47:00.447Z,10.20
2023-03-05T02:52:02.661Z,10.27
2023-03-05T02:57:04.818Z,8.27
2023-03-05T03:02:07.019Z,7.03
2023-03-05T03:07:09.148Z,5.30
2023-03-05T03:12:12.313Z,5.10
2023-03-05T03:17:17.204Z,4.45
2023-03-05T03:22:19.390Z,4.35
2023-03-05T03:27:21.470Z,4.22
2023-03-05T03:32:23.749Z,3.78
2023-03-05T03:37:26.180Z,3.85
2023-03-05T03:42:28.386Z,4.60
2023-03-05T03:47:31.365Z,4.90
2023-03-05T03:52:33.497Z,5.03
2023-03-05T03:57:37.054Z,4.68
2023-03-05T04:02:39.789Z,4.93
2023-03-05T04:07:41.950Z,5.10
2023-03-05T04:12:44.152Z,5.65
2023-03-05T04:17:46.270Z,5.13
2023-03-05T04:22:48.452Z,4.78
2023-03-05T04:27:50.622Z,5.10
2023-03-05T04:32:52.701Z,5.78
2023-03-05T04:37:54.790Z,4.70
2023-03-05T04:42:57.058Z,5.50
2023-03-05T04:47:59.570Z,5.78
2023-03-05T04:53:02.313Z,5.13
2023-03-05T04:58:04.629Z,5.00
2023-03-05T05:03:06.844Z,5.95
2023-03-05T05:08:09.540Z,5.65
2023-03-05T05:13:11.631Z,5.55
2023-03-05T05:18:13.759Z,5.50
2023-03-05T05:23:16.230Z,5.57
2023-03-05T05:28:18.379Z,4.72
2023-03-05T05:33:21.801Z,5.72
2023-03-05T05:38:23.879Z,5.20
2023-03-05T05:43:26.057Z,6.03
2023-03-05T05:48:33.440Z,5.85
2023-03-05T05:53:36.262Z,6.45
2023-03-05T05:58:39.983Z,7.50
2023-03-05T06:03:42.174Z,9.40
2023-03-05T06:08:44.877Z,9.90
2023-03-05T06:13:48.533Z,9.38
2023-03-05T06:18:52.218Z,9.50
2023-03-05T06:23:54.411Z,9.65
2023-03-05T06:28:57.570Z,9.07
2023-03-05T06:34:04.198Z,8.07
2023-03-05T06:39:06.843Z,8.73
2023-03-05T06:44:09.042Z,8.68
2023-03-05T06:49:12.030Z,8.68
2023-03-05T06:54:16.408Z,8.35
2023-03-05T06:59:18.824Z,9.15
2023-03-05T07:04:20.886Z,8.23
2023-03-05T07:09:23.556Z,7.25
2023-03-05T07:14:25.667Z,5.82
2023-03-05T07:19:27.815Z,6.05
2023-03-05T07:24:30.374Z,5.43
2023-03-05T07:29:32.626Z,5.90
2023-03-05T07:34:34.837Z,5.13
2023-03-05T07:39:36.951Z,5.22
2023-03-05T07:44:39.426Z,4.35
2023-03-05T07:49:42.154Z,3.95
2023-03-05T07:54:44.409Z,3.47
2023-03-05T07:59:46.682Z,3.92
2023-03-05T08:04:48.870Z,4.03
2023-03-05T08:09:51.057Z,3.78
2023-03-05T08:14:53.266Z,4.05
2023-03-05T08:19:58.587Z,4.00
2023-03-05T08:25:01.382Z,3.80
2023-03-05T08:30:03.705Z,3.70
2023-03-05T08:35:07.120Z,3.97
2023-03-05T08:40:10.672Z,3.22
2023-03-05T08:45:13.697Z,3.42
2023-03-05T08:50:16.394Z,4.13
2023-03-05T08:55:18.530Z,3.80
2023-03-05T09:00:21.023Z,3.33
2023-03-05T09:05:23.318Z,3.85
2023-03-05T09:10:25.570Z,4.05
2023-03-05T09:15:27.726Z,4.32
2023-03-05T09:20:29.881Z,4.18
2023-03-05T09:25:32.157Z,4.22
2023-03-05T09:30:35.440Z,5.10
2023-03-05T09:35:38.563Z,4.40
2023-03-05T09:41:08.102Z,4.00
2023-03-05T09:46:10.199Z,4.93
2023-03-05T09:51:21.762Z,3.95
2023-03-05T09:56:29.717Z,3.75
2023-03-05T10:01:40.015Z,3.63
2023-03-05T10:06:57.933Z,3.53
2023-03-05T10:12:06.267Z,3.38
2023-03-05T10:17:32.349Z,2.60
2023-03-05T10:22:43.213Z,3.10
2023-03-05T10:27:51.170Z,2.75
2023-03-05T10:33:24.269Z,3.10
2023-03-05T10:38:38.378Z,2.53
2023-03-05T10:43:49.898Z,3.45
2023-03-05T10:48:59.036Z,2.33
2023-03-05T10:54:19.933Z,2.60
2023-03-05T10:59:22.125Z,2.08
2023-03-05T11:04:32.438Z,3.50
2023-03-05T11:09:34.756Z,3.63
2023-03-05T11:14:41.206Z,3.28
2023-03-05T11:19:43.475Z,7.18
2023-03-05T11:25:03.316Z,3.20
2023-03-05T11:30:22.866Z,3.35
2023-03-05T11:35:34.579Z,2.30
2023-03-05T11:40:36.792Z,2.78
2023-03-05T11:45:40.476Z,3.25
2023-03-05T11:50:46.024Z,4.40
2023-03-05T11:55:57.016Z,1.90
2023-03-05T12:01:02.156Z,2.60
2023-03-05T12:06:09.999Z,2.30
2023-03-05T12:11:24.475Z,1.70
2023-03-05T12:17:03.367Z,1.30
2023-03-05T12:22:16.045Z,1.70
2023-03-05T12:27:40.406Z,0.80
2023-03-05T12:32:46.024Z,1.10
2023-03-05T12:37:51.150Z,1.48
2023-03-05T12:43:07.216Z,1.30
2023-03-05T12:48:14.805Z,0.52
2023-03-05T12:53:20.619Z,0.68
2023-03-05T12:58:45.710Z,0.90
2023-03-05T13:03:58.691Z,0.47
2023-03-05T13:09:15.047Z,0.55
2023-03-05T13:14:57.787Z,0.20
2023-03-05T13:20:02.076Z,0.60
2023-03-05T13:25:15.230Z,0.52
2023-03-05T13:30:35.689Z,0.43
2023-03-05T13:35:46.107Z,0.52
2023-03-05T13:41:03.470Z,1.25
2023-03-05T13:46:05.888Z,1.00
2023-03-05T13:51:10.010Z,1.00
2023-03-05T13:56:18.954Z,1.80
2023-03-05T14:01:37.074Z,1.30
2023-03-05T14:07:10.063Z,1.70
2023-03-05T14:12:34.955Z,3.22
2023-03-05T14:17:42.807Z,2.47
2023-03-05T14:22:46.866Z,3.33
2023-03-05T14:27:49.224Z,3.03
2023-03-05T14:32:54.931Z,3.10
2023-03-05T14:37:59.220Z,1.92
2023-03-05T14:43:10.949Z,4.05
2023-03-05T14:48:16.419Z,2.13
2023-03-05T14:53:25.057Z,5.88
2023-03-05T14:58:32.929Z,2.60
2023-03-05T15:03:35.182Z,3.47
2023-03-05T15:08:37.366Z,8.80
2023-03-05T15:13:39.725Z,3.75
2023-03-05T15:18:42.764Z,3.67
2023-03-05T15:23:45.670Z,9.88
2023-03-05T15:28:48.422Z,12.60
2023-03-05T15:33:50.648Z,9.88
2023-03-05T15:38:52.802Z,4.20
2023-03-05T15:43:54.949Z,4.03
2023-03-05T15:48:57.150Z,5.47
2023-03-05T15:53:59.397Z,6.05
2023-03-05T15:59:02.941Z,4.93
2023-03-05T16:04:05.982Z,10.57
2023-03-05T16:09:08.313Z,11.20
2023-03-05T16:14:11.064Z,7.40
2023-03-05T16:19:16.463Z,7.03
2023-03-05T16:24:18.648Z,8.48
2023-03-05T16:29:21.672Z,7.28
2023-03-05T16:34:24.004Z,7.18
2023-03-05T16:39:26.868Z,8.05
2023-03-05T16:44:29.010Z,8.02
2023-03-05T16:49:31.720Z,13.82
2023-03-05T16:54:34.728Z,9.50
2023-03-05T16:59:38.230Z,8.82
2023-03-05T17:04:40.733Z,9.48
2023-03-05T17:09:45.567Z,11.00
2023-03-05T17:14:48.174Z,7.60
2023-03-05T17:19:50.384Z,6.88
2023-03-05T17:24:52.717Z,7.43
2023-03-05T17:29:54.997Z,7.75
2023-03-05T17:34:57.250Z,9.52
2023-03-05T17:39:59.425Z,8.25
2023-03-05T17:45:01.962Z,6.82
2023-03-05T17:50:04.725Z,7.25
2023-03-05T17:55:10.515Z,9.23
2023-03-05T18:00:19.011Z,7.80
2023-03-05T18:05:23.795Z,8.98
2023-03-05T18:10:27.390Z,8.18
2023-03-05T18:15:30.177Z,8.57
2023-03-05T18:20:34.905Z,9.93
2023-03-05T18:25:37.772Z,18.02
2023-03-05T18:30:41.240Z,15.90
2023-03-05T18:35:43.475Z,15.15
2023-03-05T18:40:47.475Z,17.15
2023-03-05T18:45:55.608Z,16.92
2023-03-05T18:50:58.599Z,13.85
2023-03-05T18:56:01.972Z,17.15
2023-03-05T19:01:05.579Z,17.15
2023-03-05T19:06:08.294Z,15.73
2023-03-05T19:11:20.566Z,18.42
2023-03-05T19:16:27.052Z,20.95
2023-03-05T19:21:32.926Z,20.42
2023-03-05T19:26:35.074Z,18.20
2023-03-05T19:31:37.984Z,16.25
2023-03-05T19:36:40.106Z,13.98
2023-03-05T19:41:42.549Z,13.30
2023-03-05T19:46:44.820Z,14.60
2023-03-05T19:51:47.835Z,19.70
2023-03-05T19:56:53.564Z,21.38
2023-03-05T20:01:57.842Z,20.52
2023-03-05T20:07:00.138Z,22.48
2023-03-05T20:12:05.123Z,18.23
2023-03-05T20:17:07.409Z,15.20
2023-03-05T20:22:09.624Z,13.93
2023-03-05T20:27:11.765Z,13.73
2023-03-05T20:32:15.489Z,16.02
2023-03-05T20:38:22.044Z,16.15
2023-03-05T20:43:26.629Z,15.88
2023-03-05T20:48:34.361Z,15.27
2023-03-05T20:53:37.075Z,15.02
2023-03-05T20:58:39.672Z,15.43
2023-03-05T21:03:42.150Z,15.38
2023-03-05T21:08:44.327Z,17.88
2023-03-05T21:13:47.080Z,16.42
2023-03-05T21:18:49.674Z,25.80
2023-03-05T21:23:52.516Z,21.65
2023-03-05T21:28:54.700Z,83.85
2023-03-05T21:33:57.194Z,27.95
2023-03-05T21:39:00.708Z,21.20
2023-03-05T21:44:04.405Z,24.05
2023-03-05T21:49:07.345Z,25.67
2023-03-05T21:54:09.797Z,26.58
2023-03-05T21:59:12.309Z,21.52
2023-03-05T22:04:15.377Z,18.63
2023-03-05T22:09:17.735Z,19.52
2023-03-05T22:14:19.983Z,18.15
2023-03-05T22:19:23.659Z,18.08
2023-03-05T22:24:25.970Z,20.77
2023-03-05T22:29:29.309Z,16.58
2023-03-05T22:34:31.409Z,14.73
2023-03-05T22:39:33.768Z,15.57
2023-03-05T22:44:36.262Z,18.33
2023-03-05T22:49:38.492Z,20.33
2023-03-05T22:54:40.652Z,17.15
2023-03-05T22:59:42.806Z,17.88
2023-03-05T23:04:50.298Z,18.17
2023-03-05T23:09:56.965Z,17.60
2023-03-05T23:15:04.370Z,16.83
2023-03-05T23:20:11.888Z,15.90
2023-03-05T23:25:15.592Z,15.10
2023-03-05T23:30:21.734Z,14.77
2023-03-05T23:35:29.656Z,15.38
2023-03-05T23:40:42.146Z,16.60
2023-03-05T23:45:48.515Z,13.00
2023-03-05T23:50:50.841Z,11.20
2023-03-05T23:55:54.167Z,9.90
